Veuillez saisir l'adresse e-mail associée à votre compte d'utilisateur. Un code de vérification vous sera adressé. Lorsque vous le recevrez, vous pourrez choisir un nouveau mot de passe

METAR TAF

[Source: ADDS]
METAR
LFCR 221330Z AUTO 27017KT 6000 -DZ OVC006 10/09 Q1021 TEMPO 4000 BKN015 OVC030 BECMG 29018G33KT =
LFBA 221330Z AUTO 25014KT 220V280 9999 BKN011 OVC017 13/12 Q1023 BECMG 26015G25KT =
LFSL 221330Z AUTO 26010KT 210V300 9999 -DZ OVC007 12/11 Q1020 TEMPO 27015G25KT BECMG OVC020 =
LFLW 221330Z AUTO 26013KT 5000 -DZ BR OVC009 10/09 Q1020 TEMPO 27015G32KT RA =
TAF
LFCR 221100Z 2212/2312 27014KT 8000 -DZ OVC006 TEMPO 2212/2215 4000 OVC003 BECMG 2212/2214 29018G33KT PROB30 2215/2220 BKN015 OVC030 TEMPO 2220/2309 4000 -DZRA OVC003 BECMG 2219/2221 28010KT BECMG 2309/2311 SCT011 BKN020 =
AMD LFBA 221322Z 2213/2221 26015G25KT 8000 OVC008 BECMG 2218/2220 4000 BR BKN004 =
LFSL 221100Z 2212/2221 25013KT 9999 -DZ OVC008 TEMPO 2212/2213 3000 DZRA OVC003 BECMG 2213/2215 OVC020 TEMPO 2213/2217 27015G25KT TEMPO 2218/2221 BKN013 =
AMD LFLW 221322Z 2213/2221 27010KT 9999 OVC008 TEMPO 2213/2218 27015G32KT 3000 RA TEMPO 2218/2221 3000 BR OVC005 =
SR / SS: 07:21 / 16:50 UTC (LFCC 2018-01-22)